Ana Sayfa
METAR-TAF:

METAR-TAF

Havaalanları :

Kimberley, Güney Afrika

Enlem: 28-48S, Boylam: 024-46E, yükseklik: 1198 m

Güncel hava durumu gözlemi

Rapor saat 21:00 UTC de 52 dakika önce yapıldı.
Rüzgar güney/güneybatıdan 4 kt
Sıcaklık 12°C
Nem 24%
Basınç 1023 hPa

METAR: FAKM 202100Z AUTO 20004KT //// // ////// 12/M08 Q1023

Saat: 23:52 (21:52 UTC)

Tahmin

Rapor saat 09:00 UTC de 12 saat ve 52 dakika önce yapıldı.
Ayın 20'si saat 10 UTC'den ayın 20'si saat 18 UTC'ye kadar geçerli Tahmin
Rüzgar değişken yönden 3 kt
Görüş mesafesi 10 km veya daha fazla
1500 m altında bulut yok ve kümülonimbus yok

TAF: FAKM 200900Z 2010/2018 VRB03KT CAVOK TX23/2013Z TN13/2018Z

4.000'den fazla havaalanı için hava durumu gözlemleri ve tahminleri (METAR ve TAF raporları).

Kullanılabilir istasyonlar harita üzerinde sarı ve kırmızı noktalarla gösterilir.

İstasyonun adını görmek için fareyi noktanın üzerinde gezdirin.

Sonrasında hava gözlem ve tahminlerini görmek için tıklayın.

Haritayı değiştirmek için: yaklaştırmak için siyah artı işaretli yeşil düğmeye ve uzaklaştırmak için de eksi işaretli düğmeye hızla tıklayın; bitişik haritalar için yeşil okları kullanın.


METAR-TAF: